sensor_id;sensor_type;location;lat;lon;timestamp;P1;durP1;ratioP1;P2;durP2;ratioP2
17858;SDS011;35426;30.698;104.050;2024-02-21T00:00:53;6.20;;;2.80;;
17858;SDS011;35426;30.698;104.050;2024-02-21T00:03:26;5.40;;;2.90;;
17858;SDS011;35426;30.698;104.050;2024-02-21T00:06:02;7.90;;;2.90;;
17858;SDS011;35426;30.698;104.050;2024-02-21T00:08:36;4.47;;;2.90;;
17858;SDS011;35426;30.698;104.050;2024-02-21T00:11:10;2.70;;;2.23;;
17858;SDS011;35426;30.698;104.050;2024-02-21T00:13:44;5.70;;;2.30;;
17858;SDS011;35426;30.698;104.050;2024-02-21T00:16:18;8.00;;;2.60;;
17858;SDS011;35426;30.698;104.050;2024-02-21T00:18:51;5.47;;;2.70;;
17858;SDS011;35426;30.698;104.050;2024-02-21T00:21:27;6.97;;;2.67;;
17858;SDS011;35426;30.698;104.050;2024-02-21T00:24:00;5.67;;;2.70;;
17858;SDS011;35426;30.698;104.050;2024-02-21T00:26:33;5.70;;;2.53;;
17858;SDS011;35426;30.698;104.050;2024-02-21T00:29:10;7.57;;;2.70;;
17858;SDS011;35426;30.698;104.050;2024-02-21T00:31:45;6.07;;;2.60;;
17858;SDS011;35426;30.698;104.050;2024-02-21T00:34:21;6.07;;;2.60;;
17858;SDS011;35426;30.698;104.050;2024-02-21T00:36:59;7.27;;;2.60;;
17858;SDS011;35426;30.698;104.050;2024-02-21T00:39:33;5.80;;;2.70;;
17858;SDS011;35426;30.698;104.050;2024-02-21T00:42:07;6.70;;;2.57;;
17858;SDS011;35426;30.698;104.050;2024-02-21T00:44:41;6.10;;;2.60;;
17858;SDS011;35426;30.698;104.050;2024-02-21T00:47:15;4.63;;;2.70;;
17858;SDS011;35426;30.698;104.050;2024-02-21T00:49:49;6.93;;;2.70;;
17858;SDS011;35426;30.698;104.050;2024-02-21T00:52:29;5.53;;;2.70;;
17858;SDS011;35426;30.698;104.050;2024-02-21T00:55:06;5.07;;;2.60;;
17858;SDS011;35426;30.698;104.050;2024-02-21T00:57:40;7.20;;;3.10;;
17858;SDS011;35426;30.698;104.050;2024-02-21T01:00:15;7.50;;;2.53;;
17858;SDS011;35426;30.698;104.050;2024-02-21T01:02:49;9.27;;;3.00;;
17858;SDS011;35426;30.698;104.050;2024-02-21T01:05:22;4.43;;;2.57;;
17858;SDS011;35426;30.698;104.050;2024-02-21T01:07:59;6.07;;;3.00;;
17858;SDS011;35426;30.698;104.050;2024-02-21T01:10:34;5.07;;;2.93;;
17858;SDS011;35426;30.698;104.050;2024-02-21T01:13:08;4.07;;;2.90;;
17858;SDS011;35426;30.698;104.050;2024-02-21T01:15:41;5.07;;;2.70;;
17858;SDS011;35426;30.698;104.050;2024-02-21T01:18:15;8.30;;;3.30;;
17858;SDS011;35426;30.698;104.050;2024-02-21T01:20:51;7.13;;;2.70;;
17858;SDS011;35426;30.698;104.050;2024-02-21T01:23:27;4.83;;;2.70;;
17858;SDS011;35426;30.698;104.050;2024-02-21T01:26:03;4.10;;;2.73;;
17858;SDS011;35426;30.698;104.050;2024-02-21T01:28:37;5.10;;;2.87;;
17858;SDS011;35426;30.698;104.050;2024-02-21T01:31:11;6.47;;;2.80;;
17858;SDS011;35426;30.698;104.050;2024-02-21T01:33:48;6.63;;;2.50;;
17858;SDS011;35426;30.698;104.050;2024-02-21T01:36:23;10.17;;;2.63;;
17858;SDS011;35426;30.698;104.050;2024-02-21T01:39:00;7.80;;;2.87;;
17858;SDS011;35426;30.698;104.050;2024-02-21T01:41:35;6.70;;;2.90;;
17858;SDS011;35426;30.698;104.050;2024-02-21T01:44:09;8.37;;;2.83;;
17858;SDS011;35426;30.698;104.050;2024-02-21T01:46:44;3.70;;;2.70;;
17858;SDS011;35426;30.698;104.050;2024-02-21T01:49:24;6.30;;;2.90;;
17858;SDS011;35426;30.698;104.050;2024-02-21T01:51:58;6.13;;;3.20;;
17858;SDS011;35426;30.698;104.050;2024-02-21T01:54:34;10.73;;;2.97;;
17858;SDS011;35426;30.698;104.050;2024-02-21T01:57:08;7.80;;;2.90;;
17858;SDS011;35426;30.698;104.050;2024-02-21T01:59:42;6.53;;;2.90;;
17858;SDS011;35426;30.698;104.050;2024-02-21T02:02:19;7.90;;;3.20;;
17858;SDS011;35426;30.698;104.050;2024-02-21T02:04:53;5.73;;;3.07;;
17858;SDS011;35426;30.698;104.050;2024-02-21T02:07:29;4.67;;;3.10;;
17858;SDS011;35426;30.698;104.050;2024-02-21T02:10:06;6.97;;;3.30;;
17858;SDS011;35426;30.698;104.050;2024-02-21T02:12:40;7.07;;;2.90;;
17858;SDS011;35426;30.698;104.050;2024-02-21T02:15:18;4.73;;;3.20;;
17858;SDS011;35426;30.698;104.050;2024-02-21T02:18:04;10.40;;;2.80;;
17858;SDS011;35426;30.698;104.050;2024-02-21T02:20:39;6.83;;;3.17;;
17858;SDS011;35426;30.698;104.050;2024-02-21T02:23:21;9.23;;;3.20;;
17858;SDS011;35426;30.698;104.050;2024-02-21T02:26:02;5.20;;;3.00;;
17858;SDS011;35426;30.698;104.050;2024-02-21T02:28:39;6.37;;;3.10;;
17858;SDS011;35426;30.698;104.050;2024-02-21T02:31:13;5.60;;;2.90;;
17858;SDS011;35426;30.698;104.050;2024-02-21T02:33:48;6.00;;;2.93;;
17858;SDS011;35426;30.698;104.050;2024-02-21T02:36:22;5.87;;;2.83;;
17858;SDS011;35426;30.698;104.050;2024-02-21T02:39:03;5.23;;;2.77;;
17858;SDS011;35426;30.698;104.050;2024-02-21T02:41:37;6.53;;;3.00;;
17858;SDS011;35426;30.698;104.050;2024-02-21T02:44:12;6.40;;;3.10;;
17858;SDS011;35426;30.698;104.050;2024-02-21T02:46:47;5.40;;;2.93;;
17858;SDS011;35426;30.698;104.050;2024-02-21T02:49:22;7.70;;;3.40;;
17858;SDS011;35426;30.698;104.050;2024-02-21T02:51:55;6.00;;;3.20;;
17858;SDS011;35426;30.698;104.050;2024-02-21T02:54:30;9.30;;;3.43;;
17858;SDS011;35426;30.698;104.050;2024-02-21T02:57:05;7.77;;;3.37;;
17858;SDS011;35426;30.698;104.050;2024-02-21T02:59:38;5.53;;;3.00;;
17858;SDS011;35426;30.698;104.050;2024-02-21T03:02:14;10.27;;;3.17;;
17858;SDS011;35426;30.698;104.050;2024-02-21T03:04:50;9.80;;;4.07;;
17858;SDS011;35426;30.698;104.050;2024-02-21T03:07:25;10.43;;;3.33;;
17858;SDS011;35426;30.698;104.050;2024-02-21T03:10:03;6.20;;;3.20;;
17858;SDS011;35426;30.698;104.050;2024-02-21T03:12:37;8.90;;;3.30;;
17858;SDS011;35426;30.698;104.050;2024-02-21T03:15:12;8.63;;;3.77;;
17858;SDS011;35426;30.698;104.050;2024-02-21T03:17:47;11.13;;;3.67;;
17858;SDS011;35426;30.698;104.050;2024-02-21T03:20:21;6.73;;;3.33;;
17858;SDS011;35426;30.698;104.050;2024-02-21T03:22:54;7.50;;;3.33;;
17858;SDS011;35426;30.698;104.050;2024-02-21T03:25:31;8.00;;;3.40;;
17858;SDS011;35426;30.698;104.050;2024-02-21T03:28:05;8.03;;;3.57;;
17858;SDS011;35426;30.698;104.050;2024-02-21T03:30:42;9.13;;;3.73;;
17858;SDS011;35426;30.698;104.050;2024-02-21T03:33:15;8.90;;;3.60;;
17858;SDS011;35426;30.698;104.050;2024-02-21T03:35:55;7.03;;;3.30;;
17858;SDS011;35426;30.698;104.050;2024-02-21T03:38:28;7.00;;;3.60;;
17858;SDS011;35426;30.698;104.050;2024-02-21T03:41:05;7.73;;;3.73;;
17858;SDS011;35426;30.698;104.050;2024-02-21T03:43:42;7.67;;;3.93;;
17858;SDS011;35426;30.698;104.050;2024-02-21T03:46:14;9.10;;;4.03;;
17858;SDS011;35426;30.698;104.050;2024-02-21T03:48:49;7.87;;;4.03;;
17858;SDS011;35426;30.698;104.050;2024-02-21T03:51:24;11.27;;;3.70;;
17858;SDS011;35426;30.698;104.050;2024-02-21T03:53:59;10.53;;;3.70;;
17858;SDS011;35426;30.698;104.050;2024-02-21T03:56:39;7.27;;;4.00;;
17858;SDS011;35426;30.698;104.050;2024-02-21T03:59:14;9.10;;;4.30;;
17858;SDS011;35426;30.698;104.050;2024-02-21T04:01:51;10.57;;;4.13;;
17858;SDS011;35426;30.698;104.050;2024-02-21T04:04:26;8.53;;;3.90;;
17858;SDS011;35426;30.698;104.050;2024-02-21T04:07:02;9.93;;;4.00;;
17858;SDS011;35426;30.698;104.050;2024-02-21T04:09:38;8.70;;;4.40;;
17858;SDS011;35426;30.698;104.050;2024-02-21T04:12:13;9.07;;;3.70;;
17858;SDS011;35426;30.698;104.050;2024-02-21T04:14:48;8.07;;;3.70;;
17858;SDS011;35426;30.698;104.050;2024-02-21T04:17:22;10.90;;;4.10;;
17858;SDS011;35426;30.698;104.050;2024-02-21T04:20:04;9.57;;;4.50;;
17858;SDS011;35426;30.698;104.050;2024-02-21T04:22:40;13.93;;;5.07;;
17858;SDS011;35426;30.698;104.050;2024-02-21T04:25:14;13.63;;;5.40;;
17858;SDS011;35426;30.698;104.050;2024-02-21T04:27:51;9.80;;;4.80;;
17858;SDS011;35426;30.698;104.050;2024-02-21T04:30:26;13.00;;;5.43;;
17858;SDS011;35426;30.698;104.050;2024-02-21T04:33:00;15.17;;;6.60;;
17858;SDS011;35426;30.698;104.050;2024-02-21T04:35:34;18.07;;;7.90;;
17858;SDS011;35426;30.698;104.050;2024-02-21T04:38:09;14.27;;;6.53;;
17858;SDS011;35426;30.698;104.050;2024-02-21T04:40:44;17.00;;;6.43;;
17858;SDS011;35426;30.698;104.050;2024-02-21T04:43:22;12.90;;;5.93;;
17858;SDS011;35426;30.698;104.050;2024-02-21T04:45:58;12.93;;;6.10;;
17858;SDS011;35426;30.698;104.050;2024-02-21T04:48:32;15.73;;;5.87;;
17858;SDS011;35426;30.698;104.050;2024-02-21T04:51:06;14.47;;;6.20;;
17858;SDS011;35426;30.698;104.050;2024-02-21T04:53:40;13.00;;;6.20;;
17858;SDS011;35426;30.698;104.050;2024-02-21T04:56:13;15.33;;;6.20;;
17858;SDS011;35426;30.698;104.050;2024-02-21T04:58:51;15.00;;;6.23;;
17858;SDS011;35426;30.698;104.050;2024-02-21T05:01:25;13.40;;;5.90;;
17858;SDS011;35426;30.698;104.050;2024-02-21T05:03:59;13.30;;;6.20;;
17858;SDS011;35426;30.698;104.050;2024-02-21T05:06:37;12.63;;;6.03;;
17858;SDS011;35426;30.698;104.050;2024-02-21T05:09:11;13.93;;;6.43;;
17858;SDS011;35426;30.698;104.050;2024-02-21T05:11:45;10.43;;;5.90;;
17858;SDS011;35426;30.698;104.050;2024-02-21T05:14:20;12.10;;;6.40;;
17858;SDS011;35426;30.698;104.050;2024-02-21T05:16:53;10.37;;;5.80;;
17858;SDS011;35426;30.698;104.050;2024-02-21T05:19:28;12.43;;;5.90;;
17858;SDS011;35426;30.698;104.050;2024-02-21T05:22:02;8.27;;;5.60;;
17858;SDS011;35426;30.698;104.050;2024-02-21T05:24:35;10.73;;;6.27;;
17858;SDS011;35426;30.698;104.050;2024-02-21T05:27:11;14.37;;;7.20;;
17858;SDS011;35426;30.698;104.050;2024-02-21T05:29:47;10.90;;;6.40;;
17858;SDS011;35426;30.698;104.050;2024-02-21T05:32:22;13.70;;;6.10;;
17858;SDS011;35426;30.698;104.050;2024-02-21T05:34:56;11.97;;;5.93;;
17858;SDS011;35426;30.698;104.050;2024-02-21T05:37:29;13.67;;;6.60;;
17858;SDS011;35426;30.698;104.050;2024-02-21T05:40:04;13.80;;;6.70;;
17858;SDS011;35426;30.698;104.050;2024-02-21T05:42:39;12.70;;;6.60;;
17858;SDS011;35426;30.698;104.050;2024-02-21T05:45:16;15.93;;;6.30;;
17858;SDS011;35426;30.698;104.050;2024-02-21T05:47:49;9.37;;;5.97;;
17858;SDS011;35426;30.698;104.050;2024-02-21T05:50:23;13.53;;;6.10;;
17858;SDS011;35426;30.698;104.050;2024-02-21T05:52:59;18.10;;;6.63;;
17858;SDS011;35426;30.698;104.050;2024-02-21T05:55:33;12.00;;;6.23;;
17858;SDS011;35426;30.698;104.050;2024-02-21T05:58:10;11.97;;;6.33;;
17858;SDS011;35426;30.698;104.050;2024-02-21T06:00:46;12.00;;;6.20;;
17858;SDS011;35426;30.698;104.050;2024-02-21T06:03:19;9.27;;;5.60;;
17858;SDS011;35426;30.698;104.050;2024-02-21T06:05:52;14.67;;;5.60;;
17858;SDS011;35426;30.698;104.050;2024-02-21T06:08:29;12.23;;;6.00;;
17858;SDS011;35426;30.698;104.050;2024-02-21T06:11:03;13.07;;;6.33;;
17858;SDS011;35426;30.698;104.050;2024-02-21T06:13:45;10.50;;;6.13;;
17858;SDS011;35426;30.698;104.050;2024-02-21T06:16:22;13.47;;;5.90;;
17858;SDS011;35426;30.698;104.050;2024-02-21T06:18:56;10.93;;;6.33;;
17858;SDS011;35426;30.698;104.050;2024-02-21T06:21:32;12.93;;;6.67;;
17858;SDS011;35426;30.698;104.050;2024-02-21T06:24:08;17.17;;;6.87;;
17858;SDS011;35426;30.698;104.050;2024-02-21T06:26:41;14.30;;;6.57;;
17858;SDS011;35426;30.698;104.050;2024-02-21T06:29:16;13.13;;;7.00;;
17858;SDS011;35426;30.698;104.050;2024-02-21T06:31:52;17.00;;;7.30;;
17858;SDS011;35426;30.698;104.050;2024-02-21T06:34:26;14.30;;;7.40;;
17858;SDS011;35426;30.698;104.050;2024-02-21T06:37:02;14.27;;;6.70;;
17858;SDS011;35426;30.698;104.050;2024-02-21T06:39:35;16.80;;;7.13;;
17858;SDS011;35426;30.698;104.050;2024-02-21T06:42:10;15.10;;;7.17;;
17858;SDS011;35426;30.698;104.050;2024-02-21T06:44:44;16.07;;;7.23;;
17858;SDS011;35426;30.698;104.050;2024-02-21T06:47:20;15.70;;;7.50;;
17858;SDS011;35426;30.698;104.050;2024-02-21T06:49:54;15.57;;;7.23;;
17858;SDS011;35426;30.698;104.050;2024-02-21T06:52:27;13.63;;;6.73;;
17858;SDS011;35426;30.698;104.050;2024-02-21T06:55:03;14.63;;;7.67;;
17858;SDS011;35426;30.698;104.050;2024-02-21T06:57:36;18.03;;;7.37;;
17858;SDS011;35426;30.698;104.050;2024-02-21T07:00:10;15.07;;;7.70;;
17858;SDS011;35426;30.698;104.050;2024-02-21T07:02:47;15.63;;;7.50;;
17858;SDS011;35426;30.698;104.050;2024-02-21T07:05:21;15.47;;;7.50;;
17858;SDS011;35426;30.698;104.050;2024-02-21T07:07:55;14.90;;;7.37;;
17858;SDS011;35426;30.698;104.050;2024-02-21T07:10:29;16.37;;;8.17;;
17858;SDS011;35426;30.698;104.050;2024-02-21T07:13:03;16.30;;;7.77;;
17858;SDS011;35426;30.698;104.050;2024-02-21T07:15:38;16.57;;;7.63;;
17858;SDS011;35426;30.698;104.050;2024-02-21T07:18:16;18.40;;;7.97;;
17858;SDS011;35426;30.698;104.050;2024-02-21T07:20:50;17.83;;;7.83;;
17858;SDS011;35426;30.698;104.050;2024-02-21T07:23:23;13.10;;;7.53;;
17858;SDS011;35426;30.698;104.050;2024-02-21T07:25:57;14.30;;;7.53;;
17858;SDS011;35426;30.698;104.050;2024-02-21T07:28:31;18.93;;;8.27;;
17858;SDS011;35426;30.698;104.050;2024-02-21T07:31:04;15.20;;;7.20;;
17858;SDS011;35426;30.698;104.050;2024-02-21T07:33:41;15.90;;;8.03;;
17858;SDS011;35426;30.698;104.050;2024-02-21T07:36:14;18.50;;;8.20;;
17858;SDS011;35426;30.698;104.050;2024-02-21T07:38:56;24.40;;;8.20;;
17858;SDS011;35426;30.698;104.050;2024-02-21T07:41:31;18.93;;;8.23;;
17858;SDS011;35426;30.698;104.050;2024-02-21T07:44:05;18.83;;;8.20;;
17858;SDS011;35426;30.698;104.050;2024-02-21T07:46:39;20.07;;;8.53;;
17858;SDS011;35426;30.698;104.050;2024-02-21T07:49:16;23.03;;;8.80;;
17858;SDS011;35426;30.698;104.050;2024-02-21T07:51:50;22.67;;;8.73;;
17858;SDS011;35426;30.698;104.050;2024-02-21T07:54:25;19.87;;;8.07;;
17858;SDS011;35426;30.698;104.050;2024-02-21T07:56:58;21.13;;;8.40;;
17858;SDS011;35426;30.698;104.050;2024-02-21T07:59:32;20.43;;;8.33;;
17858;SDS011;35426;30.698;104.050;2024-02-21T08:02:06;22.90;;;9.10;;
17858;SDS011;35426;30.698;104.050;2024-02-21T08:04:44;23.00;;;9.03;;
17858;SDS011;35426;30.698;104.050;2024-02-21T08:07:18;22.80;;;9.07;;
17858;SDS011;35426;30.698;104.050;2024-02-21T08:09:51;21.80;;;9.10;;
17858;SDS011;35426;30.698;104.050;2024-02-21T08:12:25;26.13;;;9.03;;
17858;SDS011;35426;30.698;104.050;2024-02-21T08:14:58;26.33;;;8.60;;
17858;SDS011;35426;30.698;104.050;2024-02-21T08:17:32;26.70;;;9.13;;
17858;SDS011;35426;30.698;104.050;2024-02-21T08:20:08;29.00;;;8.23;;
17858;SDS011;35426;30.698;104.050;2024-02-21T08:22:43;26.70;;;9.43;;
17858;SDS011;35426;30.698;104.050;2024-02-21T08:25:17;27.30;;;8.90;;
17858;SDS011;35426;30.698;104.050;2024-02-21T08:27:53;22.90;;;8.50;;
17858;SDS011;35426;30.698;104.050;2024-02-21T08:30:28;26.13;;;8.30;;
17858;SDS011;35426;30.698;104.050;2024-02-21T08:33:05;27.57;;;9.20;;
17858;SDS011;35426;30.698;104.050;2024-02-21T08:35:41;24.87;;;8.87;;
17858;SDS011;35426;30.698;104.050;2024-02-21T08:38:16;32.63;;;9.87;;
17858;SDS011;35426;30.698;104.050;2024-02-21T08:40:50;36.47;;;9.13;;
17858;SDS011;35426;30.698;104.050;2024-02-21T08:43:24;24.80;;;8.63;;
17858;SDS011;35426;30.698;104.050;2024-02-21T08:45:58;24.37;;;9.60;;
17858;SDS011;35426;30.698;104.050;2024-02-21T08:48:31;25.70;;;8.70;;
17858;SDS011;35426;30.698;104.050;2024-02-21T08:51:08;33.00;;;9.57;;
17858;SDS011;35426;30.698;104.050;2024-02-21T08:53:42;37.23;;;9.13;;
17858;SDS011;35426;30.698;104.050;2024-02-21T08:56:17;38.13;;;10.03;;
17858;SDS011;35426;30.698;104.050;2024-02-21T08:58:54;24.27;;;8.93;;
17858;SDS011;35426;30.698;104.050;2024-02-21T09:01:30;36.07;;;10.23;;
17858;SDS011;35426;30.698;104.050;2024-02-21T09:04:06;34.70;;;9.43;;
17858;SDS011;35426;30.698;104.050;2024-02-21T09:06:42;29.00;;;9.43;;
17858;SDS011;35426;30.698;104.050;2024-02-21T09:09:17;28.30;;;9.20;;
17858;SDS011;35426;30.698;104.050;2024-02-21T09:11:53;27.03;;;8.83;;
17858;SDS011;35426;30.698;104.050;2024-02-21T09:14:36;31.47;;;8.93;;
17858;SDS011;35426;30.698;104.050;2024-02-21T09:17:10;26.40;;;7.80;;
17858;SDS011;35426;30.698;104.050;2024-02-21T09:19:46;35.93;;;8.00;;
17858;SDS011;35426;30.698;104.050;2024-02-21T09:22:22;35.67;;;7.93;;
17858;SDS011;35426;30.698;104.050;2024-02-21T09:24:56;35.27;;;8.30;;
17858;SDS011;35426;30.698;104.050;2024-02-21T09:27:30;29.03;;;8.13;;
17858;SDS011;35426;30.698;104.050;2024-02-21T09:30:05;34.77;;;9.47;;
17858;SDS011;35426;30.698;104.050;2024-02-21T09:32:40;28.50;;;8.80;;
17858;SDS011;35426;30.698;104.050;2024-02-21T09:35:14;33.80;;;9.57;;
17858;SDS011;35426;30.698;104.050;2024-02-21T09:37:50;31.37;;;9.67;;
17858;SDS011;35426;30.698;104.050;2024-02-21T09:40:23;29.67;;;8.90;;
17858;SDS011;35426;30.698;104.050;2024-02-21T09:43:00;30.50;;;9.93;;
17858;SDS011;35426;30.698;104.050;2024-02-21T09:45:36;45.40;;;10.57;;
17858;SDS011;35426;30.698;104.050;2024-02-21T09:48:15;37.10;;;9.83;;
17858;SDS011;35426;30.698;104.050;2024-02-21T09:51:02;38.97;;;8.50;;
17858;SDS011;35426;30.698;104.050;2024-02-21T09:53:39;40.00;;;9.27;;
17858;SDS011;35426;30.698;104.050;2024-02-21T09:56:29;49.20;;;9.40;;
17858;SDS011;35426;30.698;104.050;2024-02-21T09:59:02;47.97;;;8.03;;
17858;SDS011;35426;30.698;104.050;2024-02-21T10:01:36;41.93;;;8.53;;
17858;SDS011;35426;30.698;104.050;2024-02-21T10:04:10;41.13;;;8.40;;
17858;SDS011;35426;30.698;104.050;2024-02-21T10:06:43;44.13;;;8.20;;
17858;SDS011;35426;30.698;104.050;2024-02-21T10:09:24;34.43;;;8.13;;
17858;SDS011;35426;30.698;104.050;2024-02-21T10:12:07;37.93;;;8.33;;
17858;SDS011;35426;30.698;104.050;2024-02-21T10:14:41;48.43;;;9.00;;
17858;SDS011;35426;30.698;104.050;2024-02-21T10:17:16;49.60;;;8.87;;
17858;SDS011;35426;30.698;104.050;2024-02-21T10:19:53;50.87;;;9.37;;
17858;SDS011;35426;30.698;104.050;2024-02-21T10:22:38;48.07;;;9.10;;
17858;SDS011;35426;30.698;104.050;2024-02-21T10:25:14;39.77;;;8.60;;
17858;SDS011;35426;30.698;104.050;2024-02-21T10:27:48;40.00;;;8.20;;
17858;SDS011;35426;30.698;104.050;2024-02-21T10:30:22;44.90;;;9.30;;
17858;SDS011;35426;30.698;104.050;2024-02-21T10:32:57;53.87;;;8.80;;
17858;SDS011;35426;30.698;104.050;2024-02-21T10:35:32;48.00;;;8.87;;
17858;SDS011;35426;30.698;104.050;2024-02-21T10:38:06;47.93;;;8.80;;
17858;SDS011;35426;30.698;104.050;2024-02-21T10:40:41;49.10;;;8.87;;
17858;SDS011;35426;30.698;104.050;2024-02-21T10:43:17;50.77;;;8.93;;
17858;SDS011;35426;30.698;104.050;2024-02-21T10:45:51;49.77;;;9.23;;
17858;SDS011;35426;30.698;104.050;2024-02-21T10:48:28;51.87;;;8.47;;
17858;SDS011;35426;30.698;104.050;2024-02-21T10:51:11;47.27;;;8.10;;
17858;SDS011;35426;30.698;104.050;2024-02-21T10:53:54;45.57;;;8.13;;
17858;SDS011;35426;30.698;104.050;2024-02-21T10:56:37;51.20;;;9.83;;
17858;SDS011;35426;30.698;104.050;2024-02-21T10:59:12;44.30;;;8.67;;
17858;SDS011;35426;30.698;104.050;2024-02-21T11:01:46;48.27;;;9.40;;
17858;SDS011;35426;30.698;104.050;2024-02-21T11:04:26;70.57;;;10.23;;
17858;SDS011;35426;30.698;104.050;2024-02-21T11:07:00;45.70;;;8.50;;
17858;SDS011;35426;30.698;104.050;2024-02-21T11:09:38;55.13;;;8.60;;
17858;SDS011;35426;30.698;104.050;2024-02-21T11:12:19;42.70;;;8.40;;
17858;SDS011;35426;30.698;104.050;2024-02-21T11:15:03;49.47;;;8.80;;
17858;SDS011;35426;30.698;104.050;2024-02-21T11:17:37;53.07;;;9.53;;
17858;SDS011;35426;30.698;104.050;2024-02-21T11:20:17;47.33;;;8.90;;
17858;SDS011;35426;30.698;104.050;2024-02-21T11:22:54;47.33;;;8.90;;
17858;SDS011;35426;30.698;104.050;2024-02-21T11:25:28;47.20;;;8.83;;
17858;SDS011;35426;30.698;104.050;2024-02-21T11:28:05;42.20;;;8.43;;
17858;SDS011;35426;30.698;104.050;2024-02-21T11:30:41;47.43;;;9.53;;
17858;SDS011;35426;30.698;104.050;2024-02-21T11:33:16;53.70;;;9.20;;
17858;SDS011;35426;30.698;104.050;2024-02-21T11:35:49;43.53;;;8.70;;
17858;SDS011;35426;30.698;104.050;2024-02-21T11:38:23;43.90;;;8.90;;
17858;SDS011;35426;30.698;104.050;2024-02-21T11:40:58;62.27;;;8.60;;
17858;SDS011;35426;30.698;104.050;2024-02-21T11:43:35;58.10;;;9.37;;
17858;SDS011;35426;30.698;104.050;2024-02-21T11:46:14;42.03;;;8.30;;
17858;SDS011;35426;30.698;104.050;2024-02-21T11:48:49;55.93;;;9.53;;
17858;SDS011;35426;30.698;104.050;2024-02-21T11:51:24;49.17;;;9.47;;
17858;SDS011;35426;30.698;104.050;2024-02-21T11:53:58;48.40;;;9.10;;
17858;SDS011;35426;30.698;104.050;2024-02-21T11:56:35;30.90;;;7.80;;
17858;SDS011;35426;30.698;104.050;2024-02-21T11:59:12;38.03;;;7.97;;
17858;SDS011;35426;30.698;104.050;2024-02-21T12:01:46;47.47;;;7.90;;
17858;SDS011;35426;30.698;104.050;2024-02-21T12:04:21;58.17;;;9.30;;
17858;SDS011;35426;30.698;104.050;2024-02-21T12:06:56;43.00;;;8.60;;
17858;SDS011;35426;30.698;104.050;2024-02-21T12:09:33;43.80;;;9.27;;
17858;SDS011;35426;30.698;104.050;2024-02-21T12:12:07;42.97;;;9.03;;
17858;SDS011;35426;30.698;104.050;2024-02-21T12:14:44;41.93;;;8.03;;
17858;SDS011;35426;30.698;104.050;2024-02-21T12:17:19;40.23;;;8.60;;
17858;SDS011;35426;30.698;104.050;2024-02-21T12:19:53;52.50;;;8.93;;
17858;SDS011;35426;30.698;104.050;2024-02-21T12:22:26;47.17;;;8.87;;
17858;SDS011;35426;30.698;104.050;2024-02-21T12:25:03;48.20;;;8.60;;
17858;SDS011;35426;30.698;104.050;2024-02-21T12:27:37;39.13;;;8.73;;
17858;SDS011;35426;30.698;104.050;2024-02-21T12:30:15;53.50;;;8.77;;
17858;SDS011;35426;30.698;104.050;2024-02-21T12:32:50;44.80;;;8.80;;
17858;SDS011;35426;30.698;104.050;2024-02-21T12:35:24;39.57;;;8.90;;
17858;SDS011;35426;30.698;104.050;2024-02-21T12:37:57;46.73;;;8.87;;
17858;SDS011;35426;30.698;104.050;2024-02-21T12:40:32;37.27;;;8.10;;
17858;SDS011;35426;30.698;104.050;2024-02-21T12:43:06;49.67;;;8.97;;
17858;SDS011;35426;30.698;104.050;2024-02-21T12:45:45;45.37;;;8.97;;
17858;SDS011;35426;30.698;104.050;2024-02-21T12:48:19;39.70;;;8.80;;
17858;SDS011;35426;30.698;104.050;2024-02-21T12:50:52;47.53;;;8.97;;
17858;SDS011;35426;30.698;104.050;2024-02-21T12:53:28;37.53;;;8.47;;
17858;SDS011;35426;30.698;104.050;2024-02-21T12:56:03;54.13;;;8.87;;
17858;SDS011;35426;30.698;104.050;2024-02-21T12:58:38;50.10;;;9.07;;
17858;SDS011;35426;30.698;104.050;2024-02-21T13:01:14;57.13;;;9.57;;
17858;SDS011;35426;30.698;104.050;2024-02-21T13:03:49;49.40;;;8.90;;
17858;SDS011;35426;30.698;104.050;2024-02-21T13:06:24;41.30;;;8.13;;
17858;SDS011;35426;30.698;104.050;2024-02-21T13:08:58;41.83;;;8.50;;
17858;SDS011;35426;30.698;104.050;2024-02-21T13:11:37;37.60;;;8.93;;
17858;SDS011;35426;30.698;104.050;2024-02-21T13:14:14;38.17;;;8.03;;
17858;SDS011;35426;30.698;104.050;2024-02-21T13:16:56;48.27;;;8.53;;
17858;SDS011;35426;30.698;104.050;2024-02-21T13:19:29;32.67;;;7.90;;
17858;SDS011;35426;30.698;104.050;2024-02-21T13:22:03;29.57;;;7.57;;
17858;SDS011;35426;30.698;104.050;2024-02-21T13:24:39;44.67;;;9.10;;
17858;SDS011;35426;30.698;104.050;2024-02-21T13:27:12;50.83;;;9.07;;
17858;SDS011;35426;30.698;104.050;2024-02-21T13:29:47;50.43;;;9.50;;
17858;SDS011;35426;30.698;104.050;2024-02-21T13:32:23;52.03;;;8.37;;
17858;SDS011;35426;30.698;104.050;2024-02-21T13:34:57;31.50;;;7.60;;
17858;SDS011;35426;30.698;104.050;2024-02-21T13:37:33;46.23;;;9.47;;
17858;SDS011;35426;30.698;104.050;2024-02-21T13:40:07;43.53;;;8.33;;
17858;SDS011;35426;30.698;104.050;2024-02-21T13:42:43;39.50;;;8.00;;
17858;SDS011;35426;30.698;104.050;2024-02-21T13:45:17;27.43;;;7.30;;
17858;SDS011;35426;30.698;104.050;2024-02-21T13:47:53;36.93;;;7.83;;
17858;SDS011;35426;30.698;104.050;2024-02-21T13:50:29;37.73;;;8.23;;
17858;SDS011;35426;30.698;104.050;2024-02-21T13:53:11;32.73;;;7.50;;
17858;SDS011;35426;30.698;104.050;2024-02-21T13:55:44;46.67;;;8.00;;
17858;SDS011;35426;30.698;104.050;2024-02-21T13:58:19;43.03;;;8.30;;
17858;SDS011;35426;30.698;104.050;2024-02-21T14:00:55;42.37;;;8.77;;
17858;SDS011;35426;30.698;104.050;2024-02-21T14:03:32;46.83;;;8.97;;
17858;SDS011;35426;30.698;104.050;2024-02-21T14:06:05;38.83;;;9.37;;
17858;SDS011;35426;30.698;104.050;2024-02-21T14:08:39;34.97;;;7.87;;
17858;SDS011;35426;30.698;104.050;2024-02-21T14:11:13;43.27;;;8.33;;
17858;SDS011;35426;30.698;104.050;2024-02-21T14:13:46;44.60;;;8.63;;
17858;SDS011;35426;30.698;104.050;2024-02-21T14:16:20;44.20;;;8.77;;
17858;SDS011;35426;30.698;104.050;2024-02-21T14:18:57;45.60;;;8.77;;
17858;SDS011;35426;30.698;104.050;2024-02-21T14:21:31;49.13;;;9.57;;
17858;SDS011;35426;30.698;104.050;2024-02-21T14:24:06;53.40;;;8.97;;
17858;SDS011;35426;30.698;104.050;2024-02-21T14:26:40;48.93;;;9.87;;
17858;SDS011;35426;30.698;104.050;2024-02-21T14:29:14;48.27;;;9.17;;
17858;SDS011;35426;30.698;104.050;2024-02-21T14:31:51;47.50;;;9.17;;
17858;SDS011;35426;30.698;104.050;2024-02-21T14:34:34;48.43;;;9.33;;
17858;SDS011;35426;30.698;104.050;2024-02-21T14:37:08;44.20;;;9.03;;
17858;SDS011;35426;30.698;104.050;2024-02-21T14:39:44;53.83;;;10.50;;
17858;SDS011;35426;30.698;104.050;2024-02-21T14:42:19;52.87;;;10.23;;
17858;SDS011;35426;30.698;104.050;2024-02-21T14:44:55;43.87;;;9.30;;
17858;SDS011;35426;30.698;104.050;2024-02-21T14:47:34;45.90;;;9.03;;
17858;SDS011;35426;30.698;104.050;2024-02-21T14:50:10;51.23;;;10.40;;
17858;SDS011;35426;30.698;104.050;2024-02-21T14:52:45;48.13;;;9.27;;
17858;SDS011;35426;30.698;104.050;2024-02-21T14:55:20;45.90;;;9.40;;
17858;SDS011;35426;30.698;104.050;2024-02-21T14:57:55;50.23;;;10.30;;